Time;durP1;ratioP1;P1;durP2;ratioP2;P2;SDS_P1;SDS_P2;PMS_P1;PMS_P2;Temp;Humidity;BMP_temperature;BMP_pressure;BME280_temperature;BME280_humidity;BME280_pressure;Samples;Min_cycle;Max_cycle;Signal;HPM_P1;HPM_P2
2022/09/13 00:02:37;;;;;;;1.00;0.70;;;12.60;88.50;;;10.95;70.18;100026.84;10315776;28;98748;-90
2022/09/13 00:07:40;;;;;;;1.03;0.73;;;12.60;89.60;;;10.98;69.98;100026.50;10288229;28;97200;-90
2022/09/13 00:12:43;;;;;;;1.93;1.00;;;12.60;88.90;;;11.05;70.17;100039.94;10290320;28;96642;-90
2022/09/13 00:17:46;;;;;;;1.13;0.70;;;12.60;89.00;;;11.04;70.36;100040.09;10308636;28;96982;-88
2022/09/13 00:22:48;;;;;;;1.33;0.80;;;12.60;89.10;;;11.04;70.02;100024.16;10297160;28;96708;-89
2022/09/13 00:27:51;;;;;;;1.17;0.90;;;12.70;88.80;;;11.08;70.49;100026.25;10294890;28;96771;-90
2022/09/13 00:32:54;;;;;;;1.70;0.80;;;12.70;88.70;;;11.09;70.04;100032.41;10287233;28;96794;-89
2022/09/13 00:38:00;;;;;;;1.67;0.60;;;12.70;89.40;;;11.04;70.24;100029.47;10260418;28;96804;-89
2022/09/13 00:43:02;;;;;;;1.30;0.80;;;12.70;89.70;;;11.04;70.21;100024.16;10295171;28;96912;-90
2022/09/13 00:48:07;;;;;;;1.47;0.90;;;12.60;90.00;;;10.99;69.96;100017.53;10272497;28;97185;-89
2022/09/13 00:53:18;;;;;;;1.03;0.70;;;12.70;90.10;;;11.03;69.78;100028.63;10300641;28;96556;-88
2022/09/13 00:58:26;;;;;;;1.73;0.90;;;12.60;90.10;;;11.01;69.96;100013.84;10311449;28;97270;-89
2022/09/13 01:03:33;;;;;;;1.30;0.83;;;12.60;90.00;;;11.05;69.77;100020.50;10285311;28;96876;-89
2022/09/13 01:08:39;;;;;;;1.13;0.70;;;12.60;89.90;;;11.05;70.12;100010.69;10295263;28;97229;-88
2022/09/13 01:13:43;;;;;;;1.47;0.83;;;12.70;89.60;;;11.06;70.26;100022.13;10308541;28;96637;-90
2022/09/13 01:18:46;;;;;;;1.30;0.60;;;12.70;89.60;;;11.02;70.06;100023.47;10273428;28;96620;-89
2022/09/13 01:24:31;;;;;;;1.40;0.60;;;12.70;89.60;;;10.95;70.41;100016.19;10272529;28;96556;-89
2022/09/13 01:30:02;;;;;;;1.57;0.80;;;12.70;89.60;;;10.89;70.70;100010.75;10301642;28;96848;-89
2022/09/13 01:35:21;;;;;;;1.15;0.73;;;12.60;89.60;;;10.81;70.83;100016.97;10287175;28;96713;-89
2022/09/13 01:40:59;;;;;;;1.53;0.90;;;12.60;90.00;;;10.73;71.45;100019.63;10301595;28;96797;-88
2022/09/13 01:46:37;;;;;;;0.85;0.60;;;12.50;90.10;;;10.66;71.74;100016.00;10286051;28;97635;-87
2022/09/13 01:52:31;;;;;;;1.23;0.90;;;12.40;90.20;;;10.54;71.63;100012.91;10271887;28;96943;-88
2022/09/13 01:57:48;;;;;;;1.43;0.80;;;12.30;90.50;;;10.42;71.98;100004.47;10247542;28;96734;-88
2022/09/13 02:03:28;;;;;;;1.50;0.60;;;12.20;90.40;;;10.33;72.58;100004.69;10266555;28;97254;-87
2022/09/13 02:08:45;;;;;;;1.53;0.73;;;12.10;90.60;;;10.17;72.86;99995.72;10314172;28;96580;-88
2022/09/13 02:14:11;;;;;;;1.10;0.70;;;12.00;90.80;;;10.13;73.31;99999.72;10279506;28;96612;-88
2022/09/13 02:19:27;;;;;;;1.60;0.80;;;11.90;90.90;;;10.05;73.64;100004.22;10283491;28;97922;-89
2022/09/13 02:24:40;;;;;;;1.23;0.97;;;11.80;91.10;;;9.99;73.98;100007.56;10298162;28;96858;-91
2022/09/13 02:29:49;;;;;;;0.93;0.70;;;11.70;91.30;;;9.82;74.01;100004.09;10304351;28;96653;-90
2022/09/13 02:35:14;;;;;;;1.07;0.73;;;11.60;91.50;;;9.74;74.28;100010.25;10313332;28;96783;-90
2022/09/13 02:40:25;;;;;;;2.07;0.97;;;11.50;91.70;;;9.60;74.56;100005.63;10278748;28;96386;-91
2022/09/13 02:45:44;;;;;;;1.33;0.73;;;11.30;92.10;;;9.49;74.65;100000.63;10289129;28;96607;-91
2022/09/13 02:51:06;;;;;;;2.33;0.90;;;11.20;92.20;;;9.35;75.00;99991.50;10296845;28;98156;-90
2022/09/13 02:56:27;;;;;;;1.10;0.70;;;11.10;92.30;;;9.26;76.03;99987.19;10308554;28;96460;-90
2022/09/13 03:01:32;;;;;;;2.03;0.93;;;11.00;92.80;;;9.17;76.10;99981.03;10292793;28;97516;-89
2022/09/13 03:06:38;;;;;;;1.27;0.77;;;10.90;93.10;;;9.16;76.19;99989.16;10281823;28;96710;-90
2022/09/13 03:12:06;;;;;;;1.33;0.80;;;10.90;93.30;;;9.09;76.34;99989.00;10283641;28;96536;-90
2022/09/13 03:17:49;;;;;;;5.00;2.03;;;10.80;93.30;;;9.04;76.76;99991.31;10304995;28;97814;-90
2022/09/13 03:23:14;;;;;;;2.67;1.30;;;10.80;93.70;;;9.03;77.10;99989.66;10280831;28;96969;-90
2022/09/13 03:29:09;;;;;;;1.60;0.90;;;10.70;93.70;;;8.93;77.15;99994.25;10288271;28;96747;-90
2022/09/13 03:34:37;;;;;;;0.80;0.70;;;10.70;94.10;;;8.89;77.59;99983.16;10302624;28;98280;-91
2022/09/13 03:39:47;;;;;;;1.33;0.90;;;10.60;94.10;;;8.83;77.70;99975.88;10282958;28;98234;-92
2022/09/13 03:44:53;;;;;;;2.00;1.10;;;10.50;94.40;;;8.80;77.95;99968.22;10317645;28;96910;-91
2022/09/13 03:49:56;;;;;;;1.67;1.00;;;10.50;94.60;;;8.79;78.05;99966.56;10303159;28;96739;-91
2022/09/13 03:55:00;;;;;;;1.50;1.07;;;10.50;94.70;;;8.71;78.10;99959.44;10303323;28;96530;-92
2022/09/13 04:00:03;;;;;;;1.40;0.90;;;10.40;94.80;;;8.65;78.17;99959.25;10300982;28;98263;-91
2022/09/13 04:05:07;;;;;;;1.53;0.90;;;10.30;95.10;;;8.57;78.17;99963.50;10316829;28;97273;-92
2022/09/13 04:10:10;;;;;;;1.60;0.97;;;10.30;95.50;;;8.55;78.61;99960.22;10317682;28;96764;-93
2022/09/13 04:15:15;;;;;;;1.00;0.63;;;10.20;95.60;;;8.50;79.00;99964.31;10297708;28;96982;-92
2022/09/13 04:20:19;;;;;;;1.67;1.00;;;10.20;95.90;;;8.49;79.24;99963.50;10302349;28;96531;-92
2022/09/13 04:25:23;;;;;;;1.73;1.27;;;10.20;96.00;;;8.48;79.43;99964.50;10303228;28;96707;-93
2022/09/13 04:30:27;;;;;;;2.43;1.47;;;10.20;96.10;;;8.52;79.48;99965.00;10297516;28;97969;-92
2022/09/13 04:35:30;;;;;;;1.60;0.90;;;10.20;96.40;;;8.55;79.93;99967.31;10301851;28;96536;-93
2022/09/13 04:40:33;;;;;;;1.90;1.30;;;10.30;96.70;;;8.58;80.15;99964.38;10299885;28;96616;-92
2022/09/13 04:45:36;;;;;;;1.80;1.00;;;10.30;96.90;;;8.63;80.48;99967.34;10286823;28;97385;-93
2022/09/13 04:50:39;;;;;;;2.37;1.13;;;10.30;97.30;;;8.62;80.68;99957.75;10300529;28;96723;-94
2022/09/13 04:55:42;;;;;;;1.20;0.90;;;10.40;98.50;;;8.75;80.93;99959.94;10294797;28;97907;-93
2022/09/13 05:00:46;;;;;;;1.57;1.07;;;10.40;98.60;;;8.92;80.92;99968.75;10293675;28;96759;-91
2022/09/13 05:05:49;;;;;;;1.00;0.80;;;10.50;98.30;;;9.08;80.50;99974.09;10294165;28;96472;-92
2022/09/13 05:10:52;;;;;;;2.93;1.40;;;10.70;98.40;;;9.20;80.52;99980.72;10262588;28;96863;-92
2022/09/13 05:16:01;;;;;;;3.13;1.60;;;10.90;98.40;;;9.32;80.32;99991.84;10281951;28;96611;-91
2022/09/13 05:21:04;;;;;;;2.37;1.43;;;11.00;98.40;;;9.39;79.96;99988.34;10292821;28;98117;-90
2022/09/13 05:26:08;;;;;;;2.63;1.27;;;11.00;98.30;;;9.53;79.76;99999.28;10295112;28;97238;-89
2022/09/13 05:31:26;;;;;;;1.60;1.10;;;11.20;98.30;;;9.62;79.92;99998.31;10294284;28;96510;-91
2022/09/13 05:36:30;;;;;;;2.23;1.40;;;11.30;98.40;;;9.74;79.94;99989.00;10295524;28;96574;-90
2022/09/13 05:41:33;;;;;;;8.63;3.77;;;11.40;98.60;;;9.85;80.09;99986.03;10268502;28;96648;-91
2022/09/13 05:46:36;;;;;;;1.53;1.10;;;11.50;98.50;;;10.04;80.40;99984.81;10309924;28;96635;-89
2022/09/13 05:51:39;;;;;;;2.17;1.10;;;11.70;98.80;;;10.26;80.84;99995.75;10298552;28;96462;-90
2022/09/13 05:56:43;;;;;;;1.90;1.40;;;11.90;98.90;;;10.40;80.55;99998.53;10291715;28;96712;-90
2022/09/13 06:01:47;;;;;;;3.47;1.50;;;12.00;98.90;;;10.57;80.46;99987.84;10293987;28;96526;-91
2022/09/13 06:06:50;;;;;;;1.63;1.10;;;12.20;99.10;;;10.69;79.79;99994.44;10293748;28;96540;-91
2022/09/13 06:11:52;;;;;;;1.93;1.30;;;12.30;98.90;;;10.80;79.37;99994.03;10292638;28;96707;-92
2022/09/13 06:16:55;;;;;;;1.90;1.30;;;12.40;98.80;;;11.07;79.36;99986.56;10310621;28;96716;-91
2022/09/13 06:21:58;;;;;;;2.87;1.00;;;12.60;98.80;;;11.29;79.17;99990.25;10293829;28;96640;-91
2022/09/13 06:27:01;;;;;;;1.57;1.00;;;12.90;98.60;;;11.51;78.27;99987.56;10306662;28;96425;-90
2022/09/13 06:32:04;;;;;;;2.23;1.10;;;13.10;98.30;;;11.80;77.75;99978.00;10295410;28;96512;-90
2022/09/13 06:37:07;;;;;;;2.40;1.13;;;13.40;98.10;;;12.04;77.03;99991.09;10293807;28;96550;-90
2022/09/13 06:42:09;;;;;;;2.40;0.90;;;13.70;97.90;;;12.28;76.21;99992.66;10292879;28;96454;-91
2022/09/13 06:47:12;;;;;;;2.40;1.10;;;13.90;97.60;;;12.57;74.94;99981.16;10292201;28;96567;-90
2022/09/13 06:52:15;;;;;;;1.90;1.10;;;14.20;97.20;;;12.84;74.40;99979.66;10292587;28;96433;-91
2022/09/13 06:57:18;;;;;;;1.50;1.03;;;14.50;97.10;;;13.12;73.32;99976.25;10290383;28;98384;-90
2022/09/13 07:02:23;;;;;;;3.25;1.15;;;14.70;96.70;;;13.44;72.67;99982.97;10285164;28;97309;-90
2022/09/13 07:07:26;;;;;;;2.58;1.20;;;15.00;96.40;;;13.69;72.37;99980.69;10292443;28;96400;-91
2022/09/13 07:12:28;;;;;;;2.47;1.08;;;15.30;96.30;;;13.98;71.55;99982.38;10290948;28;96535;-91
2022/09/13 07:17:31;;;;;;;1.50;0.93;;;15.60;96.00;;;14.22;71.01;99990.94;10291834;28;96795;-91
2022/09/13 07:22:34;;;;;;;1.73;1.00;;;15.80;95.70;;;14.46;69.81;99982.44;10291921;28;96772;-90
2022/09/13 07:27:37;;;;;;;1.50;0.95;;;16.10;95.40;;;14.72;68.12;99987.09;10271636;28;97164;-90
2022/09/13 07:32:41;;;;;;;1.75;0.90;;;16.40;94.80;;;15.00;68.07;99984.31;10255501;28;96647;-90
2022/09/13 07:37:45;;;;;;;2.83;1.30;;;16.60;94.50;;;15.25;65.30;99982.72;10281304;28;96569;-91
2022/09/13 07:42:48;;;;;;;1.83;1.20;;;16.90;93.90;;;15.51;64.52;99975.75;10287839;28;98236;-90
2022/09/13 07:47:53;;;;;;;1.95;1.13;;;17.20;93.50;;;15.82;62.92;99982.38;10285142;28;96760;-91
2022/09/13 07:52:55;;;;;;;1.88;0.90;;;17.50;92.80;;;16.09;62.75;99977.81;10286920;28;96754;-92
2022/09/13 07:57:59;;;;;;;1.77;0.90;;;17.80;92.40;;;16.31;61.73;99972.00;10302530;28;96535;-90
2022/09/13 08:03:02;;;;;;;1.75;1.10;;;17.90;91.80;;;16.50;61.16;99964.09;10289486;28;97589;-90
2022/09/13 08:08:06;;;;;;;1.85;0.80;;;18.20;91.40;;;16.76;61.11;99968.53;10274309;28;96583;-90
2022/09/13 08:13:08;;;;;;;1.65;1.00;;;18.40;91.10;;;16.95;60.01;99962.25;10281469;28;97456;-89
2022/09/13 08:18:12;;;;;;;3.70;1.10;;;18.60;90.60;;;17.18;58.45;99953.63;10281821;28;96417;-90
2022/09/13 08:23:14;;;;;;;2.92;0.98;;;18.80;90.00;;;17.49;57.95;99954.66;10279549;28;96657;-89
2022/09/13 08:28:23;;;;;;;3.22;1.23;;;19.00;88.90;;;17.85;56.51;99952.09;10285890;28;96628;-89
2022/09/13 08:33:29;;;;;;;1.88;1.08;;;19.40;87.80;;;18.23;55.48;99942.19;10296801;28;97497;-89
2022/09/13 08:38:32;;;;;;;1.35;1.10;;;19.70;85.60;;;18.58;53.57;99945.91;10313469;28;96442;-89
2022/09/13 08:44:11;;;;;;;2.35;1.05;;;20.00;84.30;;;18.90;52.09;99943.06;10295959;28;96545;-88
2022/09/13 08:49:21;;;;;;;2.10;0.98;;;20.40;81.50;;;19.13;51.51;99924.28;10297910;28;96552;-88
2022/09/13 08:54:25;;;;;;;1.35;0.80;;;20.60;81.00;;;19.47;50.73;99921.88;10284662;28;96497;-90
2022/09/13 09:00:19;;;;;;;1.27;0.80;;;21.00;79.80;;;19.66;48.58;99926.13;10321480;28;96549;-88
2022/09/13 09:05:25;;;;;;;1.08;0.60;;;21.20;76.20;;;19.82;47.88;99926.50;10214761;28;96471;-89
2022/09/13 09:10:35;;;;;;;1.50;0.80;;;21.30;76.10;;;20.01;46.41;99920.72;10295103;28;98773;-89
2022/09/13 09:16:29;;;;;;;3.37;0.87;;;21.50;73.90;;;19.97;46.65;99910.63;10255209;28;96574;-89
2022/09/13 09:21:32;;;;;;;1.83;0.98;;;21.60;72.00;;;20.14;46.58;99905.34;10264232;28;98352;-89
2022/09/13 09:26:36;;;;;;;1.35;0.80;;;21.70;71.60;;;20.42;46.11;99897.31;10309861;28;97220;-88
2022/09/13 09:31:45;;;;;;;1.10;0.70;;;21.90;70.80;;;20.66;45.46;99889.16;10269266;28;96605;-88
2022/09/13 09:37:08;;;;;;;1.48;0.85;;;22.10;70.00;;;20.90;44.09;99879.88;10309620;28;96707;-89
2022/09/13 09:42:24;;;;;;;1.80;0.85;;;22.40;69.00;;;21.03;44.24;99882.25;10296133;28;96416;-89
2022/09/13 09:47:32;;;;;;;5.30;1.08;;;22.50;68.50;;;21.18;43.22;99875.50;10312429;28;97373;-89
2022/09/13 09:53:23;;;;;;;1.35;0.70;;;22.70;67.30;;;21.43;43.70;99859.72;10310316;28;96581;-89
2022/09/13 09:58:35;;;;;;;1.40;0.77;;;22.90;67.10;;;21.73;43.44;99845.00;10303188;28;96572;-89
2022/09/13 10:03:39;;;;;;;1.55;0.70;;;23.20;65.50;;;21.75;42.54;99845.56;10312668;28;96527;-89
2022/09/13 10:08:47;;;;;;;1.30;0.60;;;23.40;65.10;;;21.73;42.50;99837.69;10298836;28;96801;-90
2022/09/13 10:14:02;;;;;;;1.48;0.82;;;23.30;64.10;;;21.77;41.70;99841.53;10295014;28;96550;-89
2022/09/13 10:19:37;;;;;;;1.48;0.77;;;23.30;63.60;;;21.77;41.65;99832.59;10296009;28;96500;-90
2022/09/13 10:24:40;;;;;;;1.27;0.68;;;23.30;62.50;;;21.69;41.73;99822.22;10255294;28;96621;-90
2022/09/13 10:29:49;;;;;;;0.60;0.52;;;23.20;62.90;;;21.81;41.96;99821.03;10286275;28;96560;-89
2022/09/13 10:34:53;;;;;;;4.47;0.80;;;23.30;63.40;;;21.88;41.70;99812.72;10292865;28;97033;-89
2022/09/13 10:40:12;;;;;;;1.85;0.77;;;23.40;62.40;;;22.26;42.54;99819.19;10284238;28;96407;-89
2022/09/13 10:45:23;;;;;;;2.35;0.73;;;23.70;63.00;;;22.27;40.35;99821.63;10309743;28;96605;-89
2022/09/13 10:50:30;;;;;;;1.10;0.68;;;24.00;61.30;;;22.56;40.40;99810.56;10283214;28;96676;-89
2022/09/13 10:55:39;;;;;;;1.38;0.73;;;24.40;61.20;;;22.85;39.96;99798.38;10267460;28;96425;-90
2022/09/13 11:01:01;;;;;;;;;;;24.80;60.30;;;23.51;39.43;99811.59;10315411;28;96663;-89
2022/09/13 11:06:33;;;;;;;1.00;0.63;;;25.40;58.50;;;23.92;37.29;99806.41;10295647;28;96604;-89
2022/09/13 11:12:13;;;;;;;1.52;0.50;;;25.90;58.10;;;24.29;36.86;99809.00;10292279;28;96734;-90
2022/09/13 11:17:37;;;;;;;0.47;0.30;;;26.10;58.30;;;24.88;35.51;99794.13;10292296;28;96533;-91
2022/09/13 11:23:23;;;;;;;1.05;0.55;;;26.50;57.00;;;25.17;34.95;99787.06;10254872;28;96649;-90
2022/09/13 11:29:07;;;;;;;0.75;0.55;;;26.50;54.90;;;25.40;33.58;99790.31;10307379;28;96708;-87
2022/09/13 11:34:37;;;;;;;0.80;0.45;;;26.60;54.70;;;25.40;33.39;99774.81;10302503;28;96581;-89
2022/09/13 11:40:15;;;;;;;0.77;0.57;;;26.60;54.30;;;24.97;32.49;99765.34;10282154;28;96724;-92
2022/09/13 11:45:27;;;;;;;1.20;0.60;;;26.30;51.40;;;24.63;33.11;99763.16;10304843;28;96565;-89
2022/09/13 11:51:14;;;;;;;0.80;0.57;;;25.90;52.50;;;24.48;34.11;99752.28;10291112;28;96552;-89
2022/09/13 11:56:33;;;;;;;0.50;0.50;;;25.70;52.40;;;24.25;33.73;99753.59;10254797;28;96520;-93
2022/09/13 12:01:44;;;;;;;0.80;0.60;;;25.50;51.40;;;24.01;34.31;99769.53;10279551;28;96686;-89
2022/09/13 12:07:03;;;;;;;1.67;0.65;;;25.30;52.00;;;23.73;34.66;99759.94;10298344;28;97271;-89
2022/09/13 12:12:13;;;;;;;0.43;0.40;;;25.00;52.50;;;23.51;34.89;99754.66;10282411;28;96596;-89
2022/09/13 12:17:29;;;;;;;0.85;0.60;;;24.80;52.80;;;23.46;35.72;99743.78;10314223;28;96452;-89
2022/09/13 12:22:35;;;;;;;1.58;0.70;;;24.80;53.40;;;23.30;35.83;99748.28;10301267;28;96410;-89
2022/09/13 12:28:10;;;;;;;0.93;0.65;;;24.70;53.40;;;23.10;36.18;99735.44;10302959;28;96558;-88
2022/09/13 12:33:15;;;;;;;1.23;0.75;;;24.50;53.30;;;23.02;35.88;99735.09;10287315;28;96735;-90
2022/09/13 12:38:46;;;;;;;1.20;0.68;;;24.40;53.20;;;22.76;36.21;99737.59;10294216;28;97696;-91
2022/09/13 12:44:20;;;;;;;1.08;0.63;;;24.20;53.40;;;22.61;37.35;99735.59;10289400;28;96641;-88
2022/09/13 12:49:53;;;;;;;1.77;0.60;;;24.00;54.20;;;22.52;37.80;99736.31;10279689;28;96752;-90
2022/09/13 12:55:14;;;;;;;0.95;0.60;;;23.90;54.70;;;22.48;38.78;99746.84;10297145;28;96443;-91
2022/09/13 13:00:59;;;;;;;1.08;0.63;;;23.80;55.70;;;22.39;38.66;99732.97;10262322;28;96572;-89
2022/09/13 13:06:37;;;;;;;1.45;0.80;;;23.70;55.60;;;22.35;39.00;99741.84;10255774;28;97315;-90
2022/09/13 13:11:46;;;;;;;0.73;0.60;;;23.60;56.20;;;22.16;38.98;99747.63;10318165;28;97131;-88
2022/09/13 13:16:49;;;;;;;1.07;0.70;;;23.50;56.00;;;22.11;40.21;99739.44;10290712;28;97496;-87
2022/09/13 13:21:53;;;;;;;0.77;0.60;;;23.40;57.00;;;22.14;40.46;99725.41;10298081;28;97263;-88
2022/09/13 13:26:58;;;;;;;0.98;0.68;;;23.40;57.30;;;22.22;40.72;99736.84;10276975;28;96579;-89
2022/09/13 13:32:03;;;;;;;2.30;0.60;;;23.50;58.00;;;22.29;40.56;99721.22;10295393;28;96847;-89
2022/09/13 13:37:09;;;;;;;1.33;0.70;;;23.50;57.70;;;22.36;41.12;99727.22;10288031;28;98417;-90
2022/09/13 13:42:27;;;;;;;0.80;0.68;;;23.60;58.00;;;22.51;41.09;99713.03;10292366;28;97468;-88
2022/09/13 13:47:30;;;;;;;1.60;0.80;;;23.70;58.10;;;22.55;40.60;99712.25;10311315;28;96879;-84
2022/09/13 13:52:47;;;;;;;1.05;0.63;;;23.80;57.90;;;22.49;40.91;99713.28;10279144;28;97777;-83
2022/09/13 13:58:11;;;;;;;1.58;0.80;;;23.70;58.20;;;22.54;41.32;99701.66;10300293;28;97353;-85
2022/09/13 14:03:22;;;;;;;1.05;0.52;;;23.80;58.70;;;22.60;41.27;99704.16;10291205;28;96489;-86
2022/09/13 14:08:51;;;;;;;1.00;0.68;;;23.90;58.40;;;22.67;40.69;99696.66;10293638;28;98339;-86
2022/09/13 14:14:17;;;;;;;1.23;0.70;;;23.90;58.10;;;22.74;41.13;99698.31;10288589;28;97139;-84
2022/09/13 14:19:23;;;;;;;0.93;0.60;;;24.00;58.40;;;22.75;40.88;99689.94;10291946;28;96615;-86
2022/09/13 14:24:26;;;;;;;0.80;0.60;;;24.00;58.40;;;22.75;41.20;99679.09;10304333;28;96658;-87
2022/09/13 14:29:29;;;;;;;1.13;0.63;;;24.00;58.40;;;22.79;40.72;99679.38;10291445;28;96633;-85
2022/09/13 14:34:37;;;;;;;0.95;0.63;;;24.10;58.20;;;22.90;41.02;99668.38;10286051;28;96842;-85
2022/09/13 14:39:58;;;;;;;1.23;0.60;;;24.20;58.30;;;23.01;40.77;99657.59;10293654;28;96469;-84
2022/09/13 14:45:02;;;;;;;1.15;0.60;;;24.30;58.20;;;23.07;40.85;99667.38;10284559;28;98098;-86
2022/09/13 14:50:54;;;;;;;0.65;0.52;;;24.40;58.10;;;23.18;40.95;99661.75;10287813;28;98316;-88
2022/09/13 14:56:13;;;;;;;1.15;0.73;;;24.50;58.10;;;23.22;39.89;99665.59;10285776;28;96616;-84
2022/09/13 15:01:21;;;;;;;1.10;0.73;;;24.60;57.80;;;23.31;39.23;99656.94;10290132;28;96804;-87
2022/09/13 15:06:28;;;;;;;1.95;0.88;;;24.70;56.50;;;23.44;39.40;99653.72;10286014;28;97575;-87
2022/09/13 15:11:35;;;;;;;1.60;0.95;;;24.80;56.80;;;23.57;38.56;99639.69;10272704;28;98225;-88
2022/09/13 15:16:54;;;;;;;0.80;0.57;;;25.10;56.10;;;23.61;38.57;99635.34;10297991;28;96610;-87
2022/09/13 15:22:19;;;;;;;1.45;0.65;;;25.10;55.30;;;23.42;38.67;99636.94;10297731;28;96741;-86
2022/09/13 15:27:42;;;;;;;2.08;1.25;;;25.00;55.60;;;23.07;39.45;99629.44;10279451;28;96632;-85
2022/09/13 15:32:45;;;;;;;2.17;0.90;;;24.60;56.10;;;22.74;40.42;99633.31;10291617;28;96844;-85
2022/09/13 15:38:20;;;;;;;1.15;0.70;;;24.20;56.90;;;22.49;41.08;99634.78;10275502;28;97562;-85
2022/09/13 15:43:24;;;;;;;1.42;0.60;;;23.90;57.50;;;22.26;42.04;99633.25;10274972;28;97950;-84
2022/09/13 15:48:33;;;;;;;1.73;0.60;;;23.70;58.30;;;22.04;42.52;99627.06;10285089;28;96863;-86
2022/09/13 15:53:39;;;;;;;0.95;0.60;;;23.50;58.70;;;21.87;42.83;99622.56;10274109;28;96609;-86
2022/09/13 15:58:41;;;;;;;1.10;0.60;;;23.30;59.00;;;21.69;43.29;99619.41;10278822;28;98422;-85
2022/09/13 16:03:45;;;;;;;0.60;0.40;;;23.10;59.30;;;21.53;43.65;99613.00;10260536;28;98321;-88
2022/09/13 16:08:48;;;;;;;0.88;0.43;;;23.00;59.70;;;21.34;44.62;99617.94;10294786;28;96699;-87
2022/09/13 16:13:50;;;;;;;1.05;0.50;;;22.80;60.20;;;21.14;44.64;99606.88;10274282;28;98582;-87
2022/09/13 16:18:53;;;;;;;2.25;0.57;;;22.60;60.40;;;20.98;44.88;99606.66;10277277;28;98822;-87
2022/09/13 16:23:56;;;;;;;1.70;0.50;;;22.50;60.70;;;20.87;45.60;99606.78;10298881;28;96681;-87
2022/09/13 16:28:59;;;;;;;1.70;0.98;;;22.30;61.20;;;20.73;46.67;99599.03;10285037;28;96725;-88
2022/09/13 16:34:02;;;;;;;1.08;0.50;;;22.20;61.70;;;20.53;47.19;99604.97;10270637;28;98233;-86
2022/09/13 16:39:05;;;;;;;1.35;0.70;;;22.00;62.40;;;20.32;48.05;99601.09;10266889;28;97546;-87
2022/09/13 16:44:08;;;;;;;0.85;0.45;;;21.80;63.10;;;20.14;48.46;99612.13;10286084;28;96728;-87
2022/09/13 16:49:11;;;;;;;0.77;0.52;;;21.60;63.50;;;19.98;48.95;99616.47;10295877;28;96681;-86
2022/09/13 16:54:13;;;;;;;1.33;0.60;;;21.40;64.10;;;19.79;49.53;99623.13;10302704;28;96991;-87
2022/09/13 16:59:16;;;;;;;1.50;0.80;;;21.30;64.80;;;19.59;50.75;99612.78;10283794;28;96738;-86
2022/09/13 17:04:19;;;;;;;0.85;0.60;;;21.10;65.60;;;19.40;50.88;99616.72;10264711;28;96749;-86
2022/09/13 17:09:26;;;;;;;1.15;0.80;;;20.90;65.90;;;19.21;51.83;99622.25;10298448;28;97378;-86
2022/09/13 17:14:29;;;;;;;2.60;1.15;;;20.70;66.70;;;19.03;52.48;99625.13;10276607;28;96645;-86
2022/09/13 17:19:32;;;;;;;1.17;0.82;;;20.50;67.20;;;18.85;52.66;99625.25;10265150;28;98227;-86
2022/09/13 17:24:36;;;;;;;1.08;0.75;;;20.30;67.60;;;18.68;52.88;99614.38;10291590;28;96582;-83
2022/09/13 17:29:39;;;;;;;1.00;0.60;;;20.10;67.90;;;18.47;53.77;99615.75;10282064;28;96957;-83
2022/09/13 17:34:42;;;;;;;0.98;0.60;;;20.00;68.20;;;18.32;54.18;99624.28;10289331;28;96666;-83
2022/09/13 17:39:45;;;;;;;0.60;0.52;;;19.80;68.60;;;18.18;54.36;99612.13;10291116;28;96747;-83
2022/09/13 17:44:48;;;;;;;1.13;0.82;;;19.70;69.00;;;18.11;54.80;99625.66;10291859;28;97426;-84
2022/09/13 17:49:51;;;;;;;7.45;1.30;;;19.70;69.60;;;18.03;55.26;99617.09;10277275;28;98487;-84
2022/09/13 17:54:54;;;;;;;1.42;0.80;;;19.50;69.90;;;17.92;55.44;99621.38;10307429;28;96701;-84
2022/09/13 17:59:57;;;;;;;1.52;0.57;;;19.40;70.20;;;17.83;55.70;99615.53;10291884;28;98356;-84
2022/09/13 18:05:01;;;;;;;1.42;0.70;;;19.30;70.40;;;17.74;56.06;99619.59;10278319;28;98044;-84
2022/09/13 18:10:10;;;;;;;1.77;0.80;;;19.30;70.80;;;17.67;56.79;99621.53;10292132;28;96565;-84
2022/09/13 18:15:33;;;;;;;7.75;6.40;;;19.20;71.40;;;17.64;57.35;99635.44;10292689;28;96662;-84
2022/09/13 18:20:36;;;;;;;16.13;12.43;;;19.20;71.80;;;17.63;57.75;99641.81;10278469;28;98271;-84
2022/09/13 18:25:42;;;;;;;16.08;13.55;;;19.10;72.10;;;17.61;58.43;99641.25;10285486;28;97784;-84
2022/09/13 18:30:55;;;;;;;12.18;9.80;;;19.10;72.90;;;17.58;58.59;99649.75;10288559;28;96624;-84
2022/09/13 18:36:04;;;;;;;4.35;3.70;;;19.10;73.30;;;17.57;58.73;99651.63;10285619;28;97836;-84
2022/09/13 18:41:13;;;;;;;2.95;1.92;;;19.10;73.50;;;17.53;59.29;99653.13;10280476;28;96787;-83
2022/09/13 18:46:22;;;;;;;2.00;1.42;;;19.00;74.50;;;17.47;59.64;99650.53;10260592;28;97554;-84
2022/09/13 18:51:30;;;;;;;5.25;3.20;;;18.90;74.90;;;17.43;59.89;99663.56;10287712;28;97169;-84
2022/09/13 18:56:34;;;;;;;5.20;3.50;;;18.90;75.00;;;17.37;60.24;99659.91;10286084;28;98116;-84
2022/09/13 19:01:41;;;;;;;2.65;1.80;;;18.80;75.40;;;17.33;60.66;99653.38;10297475;28;96835;-89
2022/09/13 19:06:51;;;;;;;3.10;1.52;;;18.80;76.00;;;17.29;60.56;99656.72;10279628;28;96700;-86
2022/09/13 19:11:54;;;;;;;2.67;1.75;;;18.70;76.20;;;17.26;60.68;99657.97;10281556;28;96611;-90
2022/09/13 19:17:03;;;;;;;2.47;1.58;;;18.70;76.50;;;17.21;60.23;99654.31;10266023;28;97839;-87
2022/09/13 19:22:06;;;;;;;1.75;1.25;;;18.60;76.30;;;17.20;60.67;99656.19;10300499;28;96626;-88
2022/09/13 19:27:09;;;;;;;2.13;0.90;;;18.70;76.40;;;17.20;60.43;99656.19;10289761;28;98080;-86
2022/09/13 19:32:11;;;;;;;1.02;0.80;;;18.60;76.60;;;17.23;60.20;99652.25;10288578;28;98563;-87
2022/09/13 19:37:14;;;;;;;2.15;1.20;;;18.70;76.50;;;17.21;60.99;99640.91;10289835;28;97008;-87
2022/09/13 19:42:17;;;;;;;1.75;1.05;;;18.60;76.90;;;17.18;61.16;99638.69;10279619;28;96626;-87
2022/09/13 19:47:21;;;;;;;1.98;1.23;;;18.60;77.00;;;17.18;61.67;99642.19;10287639;28;97537;-87
2022/09/13 19:52:44;;;;;;;1.60;1.10;;;18.70;77.30;;;17.19;62.15;99646.50;10288403;28;96709;-88
2022/09/13 19:57:47;;;;;;;1.58;1.00;;;18.60;77.80;;;17.17;62.38;99651.28;10292138;28;96518;-87
2022/09/13 20:02:51;;;;;;;1.75;1.02;;;18.60;78.00;;;17.16;62.78;99654.22;10282306;28;96561;-88
2022/09/13 20:07:54;;;;;;;1.83;1.17;;;18.60;78.20;;;17.14;63.22;99659.78;10275496;28;96744;-88
2022/09/13 20:12:57;;;;;;;2.95;1.35;;;18.60;78.40;;;17.14;63.13;99659.78;10273880;28;98309;-88
2022/09/13 20:18:00;;;;;;;1.45;1.00;;;18.70;78.80;;;17.15;63.43;99650.69;10277921;28;96703;-88
2022/09/13 20:23:03;;;;;;;2.17;0.80;;;18.70;78.90;;;17.12;64.08;99648.44;10323508;28;98428;-86
2022/09/13 20:28:06;;;;;;;2.60;0.90;;;18.60;79.30;;;17.12;63.81;99643.91;10301762;28;96693;-87
2022/09/13 20:33:09;;;;;;;1.35;0.82;;;18.60;79.60;;;17.10;63.94;99647.88;10302509;28;98139;-84
2022/09/13 20:38:12;;;;;;;3.42;1.33;;;18.60;79.80;;;17.07;63.86;99638.38;10259698;28;96604;-84
2022/09/13 20:43:15;;;;;;;1.80;1.10;;;18.60;80.00;;;17.05;64.36;99639.66;10286880;28;96551;-84
2022/09/13 20:48:18;;;;;;;1.65;1.02;;;18.50;80.50;;;17.01;64.85;99638.47;10288311;28;97241;-85
2022/09/13 20:53:21;;;;;;;1.83;1.00;;;18.50;81.00;;;16.98;65.01;99631.69;10294925;28;96732;-84
2022/09/13 20:58:24;;;;;;;2.00;0.95;;;18.50;81.30;;;16.97;64.45;99634.56;10263942;28;96660;-85
2022/09/13 21:03:27;;;;;;;1.00;0.80;;;18.50;81.40;;;16.94;64.52;99633.16;10270753;28;96828;-85
2022/09/13 21:08:42;;;;;;;1.80;1.08;;;18.40;81.50;;;16.89;65.09;99622.28;10258325;28;96642;-84
2022/09/13 21:13:52;;;;;;;3.42;1.55;;;18.40;82.00;;;16.84;65.65;99630.16;10293967;28;96715;-84
2022/09/13 21:18:56;;;;;;;2.78;1.58;;;18.30;82.40;;;16.79;66.30;99630.00;10303847;28;96524;-84
2022/09/13 21:24:01;;;;;;;3.17;1.48;;;18.20;83.00;;;16.73;66.56;99622.84;10279367;28;96584;-85
2022/09/13 21:29:04;;;;;;;2.28;1.40;;;18.20;83.30;;;16.66;66.98;99625.56;10275352;28;96595;-87
2022/09/13 21:34:14;;;;;;;2.20;1.27;;;18.20;84.00;;;16.62;67.36;99629.75;10280461;28;98328;-86